Time;durP1;ratioP1;P1;durP2;ratioP2;P2;SDS_P1;SDS_P2;PMS_P1;PMS_P2;Temp;Humidity;BMP_temperature;BMP_pressure;BME280_temperature;BME280_humidity;BME280_pressure;Samples;Min_cycle;Max_cycle;Signal;HPM_P1;HPM_P2
2022/08/30 00:01:23;;;;;;;;;;;18.30;99.90;;;;;;4588869;19;20003;-23
2022/08/30 00:02:54;;;;;;;;;;;18.30;99.90;;;;;;4590297;19;19923;-24
2022/08/30 00:04:25;;;;;;;;;;;18.20;99.90;;;;;;4590740;19;19926;-25
2022/08/30 00:05:56;;;;;;;;;;;18.30;99.90;;;;;;4590272;19;20355;-23
2022/08/30 00:07:27;;;;;;;;;;;18.20;99.90;;;;;;4589666;19;19918;-22
2022/08/30 00:08:58;;;;;;;;;;;18.30;99.90;;;;;;4590201;19;19922;-26
2022/08/30 00:10:30;;;;;;;;;;;18.30;99.90;;;;;;4590104;19;20245;-23
2022/08/30 00:12:01;;;;;;;;;;;18.20;99.90;;;;;;4591041;19;19915;-23
2022/08/30 00:13:32;;;;;;;;;;;18.20;99.90;;;;;;4591071;19;19919;-23
2022/08/30 00:15:03;;;;;;;;;;;18.30;99.90;;;;;;4589809;19;19938;-23
2022/08/30 00:16:35;;;;;;;;;;;18.20;99.90;;;;;;4589434;19;20333;-22
2022/08/30 00:18:06;;;;;;;;;;;18.20;99.90;;;;;;4589123;19;19919;-25
2022/08/30 00:19:37;;;;;;;;;;;18.20;99.90;;;;;;4589719;19;19928;-23
2022/08/30 00:21:08;;;;;;;;;;;18.30;99.90;;;;;;4589414;19;19926;-25
2022/08/30 00:22:39;;;;;;;;;;;18.30;99.90;;;;;;4590933;19;20313;-25
2022/08/30 00:24:10;;;;;;;;;;;18.20;99.90;;;;;;4590935;19;19915;-22
2022/08/30 00:25:41;;;;;;;;;;;18.30;99.90;;;;;;4590823;19;19925;-23
2022/08/30 00:27:12;;;;;;;;;;;18.30;99.90;;;;;;4589980;19;19936;-22
2022/08/30 00:28:44;;;;;;;;;;;18.20;99.90;;;;;;4590130;19;19919;-24
2022/08/30 00:30:15;;;;;;;;;;;18.30;99.90;;;;;;4590840;19;19911;-24
2022/08/30 00:31:46;;;;;;;;;;;18.30;99.90;;;;;;4589660;19;19925;-24
2022/08/30 00:33:17;;;;;;;;;;;18.20;99.90;;;;;;4591046;19;19933;-22
2022/08/30 00:34:48;;;;;;;;;;;18.20;99.90;;;;;;4589462;19;19923;-22
2022/08/30 00:36:20;;;;;;;;;;;18.30;99.90;;;;;;4590555;19;19996;-24
2022/08/30 00:37:50;;;;;;;;;;;18.20;99.90;;;;;;4588828;19;19918;-25
2022/08/30 00:39:21;;;;;;;;;;;18.20;99.90;;;;;;4589897;19;19910;-23
2022/08/30 00:40:53;;;;;;;;;;;18.30;99.90;;;;;;4587483;19;19979;-24
2022/08/30 00:42:24;;;;;;;;;;;18.20;99.90;;;;;;4589442;19;19926;-22
2022/08/30 00:43:54;;;;;;;;;;;18.30;99.90;;;;;;4587566;19;19986;-23
2022/08/30 00:45:27;;;;;;;;;;;18.20;99.90;;;;;;4590252;19;19922;-23
2022/08/30 00:46:58;;;;;;;;;;;18.30;99.90;;;;;;4590411;19;19926;-25
2022/08/30 00:48:30;;;;;;;;;;;18.30;99.90;;;;;;4590212;19;20302;-23
2022/08/30 00:50:01;;;;;;;;;;;18.30;99.90;;;;;;4589412;19;19939;-22
2022/08/30 00:51:32;;;;;;;;;;;18.30;99.90;;;;;;4589079;19;19923;-22
2022/08/30 00:53:04;;;;;;;;;;;18.30;99.90;;;;;;4589511;19;19982;-21
2022/08/30 00:54:35;;;;;;;;;;;18.30;99.90;;;;;;4589255;19;20009;-21
2022/08/30 00:56:06;;;;;;;;;;;18.30;99.90;;;;;;4589495;19;20384;-27
2022/08/30 00:57:37;;;;;;;;;;;18.30;99.90;;;;;;4589921;19;19918;-25
2022/08/30 00:59:09;;;;;;;;;;;18.30;99.90;;;;;;4590522;19;20369;-24
2022/08/30 01:00:40;;;;;;;;;;;18.30;99.90;;;;;;4589828;19;19918;-21
2022/08/30 01:02:11;;;;;;;;;;;18.30;99.90;;;;;;4589014;19;19939;-25
2022/08/30 01:03:42;;;;;;;;;;;18.30;99.90;;;;;;4589027;19;19951;-23
2022/08/30 01:05:13;;;;;;;;;;;18.30;99.90;;;;;;4589989;19;19930;-25
2022/08/30 01:06:45;;;;;;;;;;;18.30;99.90;;;;;;4589130;19;19910;-23
2022/08/30 01:08:16;;;;;;;;;;;18.30;99.90;;;;;;4590116;19;19918;-23
2022/08/30 01:09:47;;;;;;;;;;;18.30;99.90;;;;;;4590108;19;19915;-22
2022/08/30 01:11:19;;;;;;;;;;;18.30;99.90;;;;;;4588819;19;19942;-23
2022/08/30 01:12:50;;;;;;;;;;;18.30;99.90;;;;;;4590039;19;20329;-23
2022/08/30 01:14:21;;;;;;;;;;;18.30;99.90;;;;;;4588765;19;19955;-24
2022/08/30 01:15:52;;;;;;;;;;;18.30;99.90;;;;;;4588691;19;19907;-23
2022/08/30 01:17:23;;;;;;;;;;;18.30;99.90;;;;;;4587779;19;19974;-25
2022/08/30 01:18:55;;;;;;;;;;;18.30;99.90;;;;;;4588582;19;19929;-22
2022/08/30 01:20:28;;;;;;;;;;;18.30;99.90;;;;;;4588301;19;19918;-25
2022/08/30 01:22:00;;;;;;;;;;;18.30;99.90;;;;;;4589635;19;19918;-23
2022/08/30 01:23:32;;;;;;;;;;;18.30;99.90;;;;;;4590048;19;19919;-23
2022/08/30 01:25:03;;;;;;;;;;;18.30;99.90;;;;;;4588863;19;20352;-23
2022/08/30 01:26:35;;;;;;;;;;;18.30;99.90;;;;;;4589407;19;19923;-23
2022/08/30 01:28:06;;;;;;;;;;;18.30;99.90;;;;;;4589901;19;19919;-24
2022/08/30 01:29:38;;;;;;;;;;;18.30;99.90;;;;;;4589001;19;19987;-25
2022/08/30 01:31:09;;;;;;;;;;;18.30;99.90;;;;;;4588534;19;19910;-23
2022/08/30 01:32:43;;;;;;;;;;;18.30;99.90;;;;;;4589468;19;19919;-23
2022/08/30 01:34:14;;;;;;;;;;;18.30;99.90;;;;;;4589583;19;19918;-22
2022/08/30 01:35:58;;;;;;;;;;;18.40;99.90;;;;;;4589571;19;19918;-22
2022/08/30 01:37:30;;;;;;;;;;;18.30;99.90;;;;;;4588364;19;19915;-22
2022/08/30 01:39:01;;;;;;;;;;;18.30;99.90;;;;;;4588376;19;19930;-22
2022/08/30 01:40:31;;;;;;;;;;;18.40;99.90;;;;;;4588020;19;20249;-23
2022/08/30 01:42:03;;;;;;;;;;;18.40;99.90;;;;;;4589529;19;19911;-24
2022/08/30 01:43:34;;;;;;;;;;;18.40;99.90;;;;;;4588505;19;20566;-23
2022/08/30 01:45:05;;;;;;;;;;;18.30;99.90;;;;;;4588620;19;19910;-22
2022/08/30 01:46:38;;;;;;;;;;;18.40;99.90;;;;;;4589389;19;19923;-23
2022/08/30 01:48:11;;;;;;;;;;;18.40;99.90;;;;;;4594044;19;19926;-22
2022/08/30 01:49:42;;;;;;;;;;;18.40;99.90;;;;;;4593923;19;19935;-25
2022/08/30 01:51:13;;;;;;;;;;;18.40;99.90;;;;;;4594144;19;19919;-23
2022/08/30 01:52:44;;;;;;;;;;;18.40;99.90;;;;;;4593268;19;19932;-22
2022/08/30 01:54:15;;;;;;;;;;;18.40;99.90;;;;;;4592607;19;19945;-23
2022/08/30 01:55:46;;;;;;;;;;;18.40;99.90;;;;;;4593156;19;19914;-26
2022/08/30 01:57:19;;;;;;;;;;;18.40;99.90;;;;;;4592583;19;19948;-23
2022/08/30 01:58:50;;;;;;;;;;;18.40;99.90;;;;;;4592921;19;19914;-22
2022/08/30 02:00:22;;;;;;;;;;;18.40;99.90;;;;;;4592200;19;19919;-23
2022/08/30 02:01:52;;;;;;;;;;;18.40;99.90;;;;;;4593412;19;20230;-23
2022/08/30 02:03:25;;;;;;;;;;;18.40;99.90;;;;;;4592714;19;19919;-23
2022/08/30 02:04:56;;;;;;;;;;;18.40;99.90;;;;;;4593415;19;20341;-23
2022/08/30 02:06:27;;;;;;;;;;;18.40;99.90;;;;;;4593546;19;20332;-24
2022/08/30 02:07:58;;;;;;;;;;;18.40;99.90;;;;;;4593844;19;19911;-23
2022/08/30 02:09:29;;;;;;;;;;;18.40;99.90;;;;;;4593768;19;19922;-23
2022/08/30 02:11:00;;;;;;;;;;;18.40;99.90;;;;;;4592690;19;19915;-23
2022/08/30 02:12:32;;;;;;;;;;;18.40;99.90;;;;;;4591760;19;19930;-22
2022/08/30 02:14:02;;;;;;;;;;;18.40;99.90;;;;;;4593209;19;20336;-21
2022/08/30 02:15:34;;;;;;;;;;;18.40;99.90;;;;;;4593607;19;19918;-23
2022/08/30 02:17:06;;;;;;;;;;;18.40;99.90;;;;;;4591858;19;20266;-24
2022/08/30 02:18:38;;;;;;;;;;;18.40;99.90;;;;;;4592852;19;19959;-22
2022/08/30 02:20:09;;;;;;;;;;;18.40;99.90;;;;;;4593041;19;19919;-22
2022/08/30 02:21:40;;;;;;;;;;;18.40;99.90;;;;;;4592697;19;19915;-23
2022/08/30 02:23:10;;;;;;;;;;;18.30;99.90;;;;;;4592102;19;19938;-23
2022/08/30 02:24:42;;;;;;;;;;;18.30;99.90;;;;;;4593066;19;19923;-22
2022/08/30 02:26:13;;;;;;;;;;;18.40;99.90;;;;;;4593589;19;19919;-23
2022/08/30 02:27:44;;;;;;;;;;;18.30;99.90;;;;;;4593171;19;19938;-24
2022/08/30 02:29:15;;;;;;;;;;;18.40;99.90;;;;;;4592964;19;19943;-23
2022/08/30 02:30:46;;;;;;;;;;;18.30;99.90;;;;;;4592209;19;19927;-25
2022/08/30 02:32:17;;;;;;;;;;;18.40;99.90;;;;;;4593050;19;20336;-24
2022/08/30 02:33:49;;;;;;;;;;;18.40;99.90;;;;;;4593409;19;19910;-22
2022/08/30 02:35:20;;;;;;;;;;;18.30;99.90;;;;;;4592733;19;19941;-23
2022/08/30 02:36:51;;;;;;;;;;;18.30;99.90;;;;;;4592979;19;19925;-23
2022/08/30 02:38:22;;;;;;;;;;;18.30;99.90;;;;;;4593379;19;19929;-24
2022/08/30 02:39:53;;;;;;;;;;;18.30;99.90;;;;;;4592137;19;20360;-23
2022/08/30 02:41:24;;;;;;;;;;;18.30;99.90;;;;;;4591711;19;19911;-25
2022/08/30 02:42:55;;;;;;;;;;;18.30;99.90;;;;;;4592818;19;19937;-25
2022/08/30 02:44:26;;;;;;;;;;;18.30;99.90;;;;;;4592886;19;19937;-22
2022/08/30 02:45:57;;;;;;;;;;;18.30;99.90;;;;;;4592904;19;20272;-23
2022/08/30 02:47:28;;;;;;;;;;;18.30;99.90;;;;;;4592990;19;19918;-22
2022/08/30 02:49:00;;;;;;;;;;;18.30;99.90;;;;;;4592640;19;19922;-23
2022/08/30 02:50:30;;;;;;;;;;;18.30;99.90;;;;;;4592812;19;19922;-23
2022/08/30 02:52:02;;;;;;;;;;;18.30;99.90;;;;;;4592859;19;19919;-22
2022/08/30 02:53:33;;;;;;;;;;;18.30;99.90;;;;;;4592757;19;19933;-22
2022/08/30 02:55:05;;;;;;;;;;;18.30;99.90;;;;;;4593038;19;19942;-23
2022/08/30 02:56:36;;;;;;;;;;;18.30;99.90;;;;;;4592607;19;20329;-25
2022/08/30 02:58:07;;;;;;;;;;;18.30;99.90;;;;;;4591846;19;19914;-23
2022/08/30 02:59:42;;;;;;;;;;;18.30;99.90;;;;;;4592791;19;19929;-23
2022/08/30 03:01:14;;;;;;;;;;;18.30;99.90;;;;;;4591797;19;19936;-23
2022/08/30 03:02:45;;;;;;;;;;;18.30;99.90;;;;;;4592540;19;19923;-23
2022/08/30 03:04:16;;;;;;;;;;;18.30;99.90;;;;;;4592515;19;19919;-25
2022/08/30 03:05:47;;;;;;;;;;;18.30;99.90;;;;;;4592449;19;20254;-22
2022/08/30 03:07:18;;;;;;;;;;;18.30;99.90;;;;;;4592477;19;19922;-23
2022/08/30 03:08:49;;;;;;;;;;;18.30;99.90;;;;;;4592302;19;20264;-23
2022/08/30 03:10:20;;;;;;;;;;;18.30;99.90;;;;;;4591681;19;20302;-22
2022/08/30 03:11:51;;;;;;;;;;;18.30;99.90;;;;;;4592249;19;20350;-23
2022/08/30 03:13:23;;;;;;;;;;;18.30;99.90;;;;;;4592336;19;19990;-23
2022/08/30 03:14:54;;;;;;;;;;;18.30;99.90;;;;;;4592282;19;19982;-23
2022/08/30 03:16:25;;;;;;;;;;;18.30;99.90;;;;;;4591395;19;19925;-23
2022/08/30 03:17:56;;;;;;;;;;;18.30;99.90;;;;;;4592084;19;19929;-23
2022/08/30 03:19:27;;;;;;;;;;;18.30;99.90;;;;;;4592211;19;19923;-22
2022/08/30 03:20:58;;;;;;;;;;;18.30;99.90;;;;;;4591136;19;19919;-22
2022/08/30 03:22:29;;;;;;;;;;;18.30;99.90;;;;;;4592282;19;19946;-25
2022/08/30 03:24:00;;;;;;;;;;;18.30;99.90;;;;;;4592499;19;19970;-23
2022/08/30 03:25:34;;;;;;;;;;;18.30;99.90;;;;;;4592035;19;19919;-23
2022/08/30 03:27:06;;;;;;;;;;;18.30;99.90;;;;;;4590685;19;19933;-23
2022/08/30 03:28:37;;;;;;;;;;;18.30;99.90;;;;;;4591625;19;19921;-23
2022/08/30 03:30:08;;;;;;;;;;;18.30;99.90;;;;;;4590992;19;19915;-24
2022/08/30 03:31:40;;;;;;;;;;;18.30;99.90;;;;;;4591658;19;19934;-23
2022/08/30 03:33:11;;;;;;;;;;;18.30;99.90;;;;;;4590989;19;19919;-23
2022/08/30 03:34:42;;;;;;;;;;;18.30;99.90;;;;;;4590808;19;19937;-22
2022/08/30 03:36:13;;;;;;;;;;;18.30;99.90;;;;;;4591589;19;19943;-23
2022/08/30 03:37:44;;;;;;;;;;;18.30;99.90;;;;;;4591854;19;19922;-23
2022/08/30 03:39:15;;;;;;;;;;;18.30;99.90;;;;;;4591866;19;19911;-26
2022/08/30 03:40:47;;;;;;;;;;;18.30;99.90;;;;;;4590971;19;19918;-24
2022/08/30 03:42:18;;;;;;;;;;;18.30;99.90;;;;;;4591717;19;19925;-23
2022/08/30 03:43:49;;;;;;;;;;;18.30;99.90;;;;;;4591799;19;19922;-24
2022/08/30 03:45:20;;;;;;;;;;;18.30;99.90;;;;;;4591516;19;19951;-22
2022/08/30 03:46:51;;;;;;;;;;;18.30;99.90;;;;;;4591919;19;20252;-25
2022/08/30 03:48:22;;;;;;;;;;;18.30;99.90;;;;;;4591195;19;19934;-22
2022/08/30 03:49:54;;;;;;;;;;;18.30;99.90;;;;;;4591142;19;19922;-23
2022/08/30 03:51:25;;;;;;;;;;;18.30;99.90;;;;;;4588467;19;19922;-22
2022/08/30 03:52:56;;;;;;;;;;;18.30;99.90;;;;;;4590629;19;19914;-22
2022/08/30 03:54:27;;;;;;;;;;;18.20;99.90;;;;;;4591628;19;19919;-22
2022/08/30 03:55:58;;;;;;;;;;;18.30;99.90;;;;;;4591544;19;19915;-24
2022/08/30 03:57:29;;;;;;;;;;;18.20;99.90;;;;;;4591573;19;19911;-25
2022/08/30 03:59:00;;;;;;;;;;;18.30;99.90;;;;;;4591411;19;19911;-24
2022/08/30 04:00:31;;;;;;;;;;;18.20;99.90;;;;;;4591121;19;19922;-24
2022/08/30 04:02:02;;;;;;;;;;;18.20;99.90;;;;;;4591240;19;19923;-22
2022/08/30 04:03:33;;;;;;;;;;;18.20;99.90;;;;;;4589365;19;20329;-25
2022/08/30 04:05:04;;;;;;;;;;;18.20;99.90;;;;;;4589999;19;19911;-23
2022/08/30 04:06:35;;;;;;;;;;;18.30;99.90;;;;;;4590349;19;19926;-23
2022/08/30 04:08:06;;;;;;;;;;;18.20;99.90;;;;;;4590098;19;19978;-23
2022/08/30 04:09:37;;;;;;;;;;;18.20;99.90;;;;;;4589687;19;20351;-24
2022/08/30 04:11:09;;;;;;;;;;;18.20;99.90;;;;;;4589064;19;19923;-23
2022/08/30 04:12:40;;;;;;;;;;;18.30;99.90;;;;;;4590227;19;19986;-25
2022/08/30 04:14:11;;;;;;;;;;;18.20;99.90;;;;;;4590312;19;19922;-22
2022/08/30 04:15:42;;;;;;;;;;;18.20;99.90;;;;;;4589353;19;19918;-22
2022/08/30 04:17:13;;;;;;;;;;;18.20;99.90;;;;;;4590234;19;19970;-24
2022/08/30 04:18:44;;;;;;;;;;;18.20;99.90;;;;;;4590503;19;19926;-24
2022/08/30 04:20:15;;;;;;;;;;;18.20;99.90;;;;;;4588191;19;19947;-23
2022/08/30 04:21:46;;;;;;;;;;;18.20;99.90;;;;;;4590651;19;19911;-23
2022/08/30 04:23:17;;;;;;;;;;;18.20;99.90;;;;;;4592397;19;19914;-25
2022/08/30 04:24:48;;;;;;;;;;;18.30;99.90;;;;;;4592725;19;19915;-23
2022/08/30 04:26:19;;;;;;;;;;;18.20;99.90;;;;;;4592453;19;20340;-23
2022/08/30 04:27:50;;;;;;;;;;;18.20;99.90;;;;;;4592313;19;19926;-23
2022/08/30 04:29:21;;;;;;;;;;;18.20;99.90;;;;;;4591596;19;19919;-22
2022/08/30 04:30:52;;;;;;;;;;;18.20;99.90;;;;;;4592473;19;19919;-22
2022/08/30 04:32:23;;;;;;;;;;;18.20;99.90;;;;;;4591904;19;19919;-23
2022/08/30 04:33:55;;;;;;;;;;;18.20;99.90;;;;;;4592380;19;19910;-22
2022/08/30 04:35:26;;;;;;;;;;;18.20;99.90;;;;;;4592906;19;19931;-23
2022/08/30 04:36:56;;;;;;;;;;;18.20;99.90;;;;;;4593212;19;19937;-23
2022/08/30 04:38:28;;;;;;;;;;;18.20;99.90;;;;;;4592879;19;19926;-23
2022/08/30 04:39:59;;;;;;;;;;;18.20;99.90;;;;;;4588423;19;19914;-23
2022/08/30 04:41:30;;;;;;;;;;;18.20;99.90;;;;;;4589081;19;20026;-23
2022/08/30 04:43:02;;;;;;;;;;;18.20;99.90;;;;;;4590998;19;19918;-22
2022/08/30 04:44:33;;;;;;;;;;;18.20;99.90;;;;;;4591126;19;19922;-22
2022/08/30 04:46:05;;;;;;;;;;;18.20;99.90;;;;;;4590679;19;19907;-23
2022/08/30 04:47:37;;;;;;;;;;;18.30;99.90;;;;;;4590939;19;19930;-25
2022/08/30 04:49:09;;;;;;;;;;;18.30;99.90;;;;;;4589710;19;19979;-23
2022/08/30 04:50:41;;;;;;;;;;;18.30;99.90;;;;;;4590143;19;19911;-22
2022/08/30 04:52:12;;;;;;;;;;;18.30;99.90;;;;;;4591148;19;20427;-22
2022/08/30 04:53:43;;;;;;;;;;;18.20;99.90;;;;;;4589948;19;19926;-23
2022/08/30 04:55:14;;;;;;;;;;;18.20;99.90;;;;;;4591165;19;20325;-23
2022/08/30 04:56:45;;;;;;;;;;;18.20;99.90;;;;;;4591047;19;20261;-24
2022/08/30 04:58:16;;;;;;;;;;;18.20;99.90;;;;;;4590549;19;19927;-21
2022/08/30 04:59:47;;;;;;;;;;;18.30;99.90;;;;;;4590623;19;19918;-22
2022/08/30 05:01:19;;;;;;;;;;;18.20;99.90;;;;;;4587707;19;19918;-22
2022/08/30 05:02:50;;;;;;;;;;;18.30;99.90;;;;;;4589225;19;19941;-22
2022/08/30 05:04:21;;;;;;;;;;;18.30;99.90;;;;;;4590210;19;19998;-22
2022/08/30 05:05:52;;;;;;;;;;;18.30;99.90;;;;;;4590345;19;19986;-23
2022/08/30 05:07:23;;;;;;;;;;;18.30;99.90;;;;;;4589885;19;19993;-22
2022/08/30 05:08:55;;;;;;;;;;;18.30;99.90;;;;;;4590100;19;19918;-22
2022/08/30 05:10:26;;;;;;;;;;;18.30;99.90;;;;;;4590402;19;19955;-22
2022/08/30 05:11:57;;;;;;;;;;;18.30;99.90;;;;;;4589415;19;20269;-24
2022/08/30 05:13:28;;;;;;;;;;;18.30;99.90;;;;;;4589866;19;19929;-23
2022/08/30 05:15:00;;;;;;;;;;;18.30;99.90;;;;;;4590039;19;19918;-22
2022/08/30 05:16:31;;;;;;;;;;;18.30;99.90;;;;;;4588781;19;19923;-25
2022/08/30 05:18:02;;;;;;;;;;;18.30;99.90;;;;;;4590463;19;19932;-23
2022/08/30 05:19:33;;;;;;;;;;;18.30;99.90;;;;;;4590804;19;20534;-23
2022/08/30 05:21:08;;;;;;;;;;;18.30;99.90;;;;;;4590747;19;19939;-23
2022/08/30 05:22:40;;;;;;;;;;;18.30;99.90;;;;;;4594700;19;19925;-22
2022/08/30 05:24:11;;;;;;;;;;;18.30;99.90;;;;;;4594322;19;19919;-22
2022/08/30 05:25:42;;;;;;;;;;;18.30;99.90;;;;;;4595135;19;19970;-23
2022/08/30 05:27:13;;;;;;;;;;;18.30;99.90;;;;;;4594925;19;19923;-22
2022/08/30 05:28:44;;;;;;;;;;;18.30;99.90;;;;;;4594433;19;19991;-22
2022/08/30 05:30:15;;;;;;;;;;;18.30;99.90;;;;;;4594129;19;19918;-22
2022/08/30 05:31:46;;;;;;;;;;;18.30;99.90;;;;;;4594113;19;19919;-22
2022/08/30 05:33:18;;;;;;;;;;;18.40;99.90;;;;;;4595298;19;19919;-22
2022/08/30 05:34:49;;;;;;;;;;;18.40;99.90;;;;;;4593505;19;19990;-25
2022/08/30 05:36:20;;;;;;;;;;;18.40;99.90;;;;;;4593365;19;19929;-23
2022/08/30 05:37:51;;;;;;;;;;;18.40;99.90;;;;;;4591515;19;19932;-23
2022/08/30 05:39:23;;;;;;;;;;;18.40;99.90;;;;;;4591757;19;20336;-23
2022/08/30 05:40:54;;;;;;;;;;;18.40;99.90;;;;;;4593123;19;19986;-25
2022/08/30 05:42:25;;;;;;;;;;;18.40;99.90;;;;;;4594670;19;19970;-24
2022/08/30 05:43:56;;;;;;;;;;;18.40;99.90;;;;;;4594995;19;19918;-22
2022/08/30 05:45:30;;;;;;;;;;;18.40;99.90;;;;;;4594656;19;19923;-23
2022/08/30 05:47:01;;;;;;;;;;;18.50;99.90;;;;;;4594008;19;20249;-23
2022/08/30 05:48:32;;;;;;;;;;;18.50;99.90;;;;;;4593136;19;19982;-23
2022/08/30 05:50:05;;;;;;;;;;;18.50;99.90;;;;;;4593585;19;19922;-23
2022/08/30 05:51:37;;;;;;;;;;;18.50;99.90;;;;;;4592586;19;19952;-23
2022/08/30 05:53:08;;;;;;;;;;;18.60;99.90;;;;;;4592482;19;20490;-25
2022/08/30 05:54:39;;;;;;;;;;;18.60;99.90;;;;;;4592570;19;19923;-23
2022/08/30 05:56:13;;;;;;;;;;;18.60;99.90;;;;;;4594242;19;19949;-23
2022/08/30 05:57:44;;;;;;;;;;;18.60;99.90;;;;;;4594233;19;19964;-23
2022/08/30 05:59:15;;;;;;;;;;;18.60;99.90;;;;;;4594389;19;19983;-25
2022/08/30 06:00:47;;;;;;;;;;;18.60;99.90;;;;;;4593265;19;19914;-23
2022/08/30 06:02:18;;;;;;;;;;;18.70;99.90;;;;;;4593934;19;19926;-23
2022/08/30 06:03:49;;;;;;;;;;;18.70;99.90;;;;;;4593273;19;20386;-23
2022/08/30 06:05:20;;;;;;;;;;;18.70;99.90;;;;;;4591684;19;19919;-22
2022/08/30 06:06:51;;;;;;;;;;;18.70;99.90;;;;;;4592334;19;19915;-22
2022/08/30 06:08:22;;;;;;;;;;;18.70;99.90;;;;;;4591026;19;19990;-22
2022/08/30 06:09:53;;;;;;;;;;;18.70;99.90;;;;;;4591599;19;20329;-22
2022/08/30 06:11:24;;;;;;;;;;;18.70;99.90;;;;;;4594683;19;19918;-22
2022/08/30 06:12:55;;;;;;;;;;;18.70;99.90;;;;;;4594375;19;19982;-23
2022/08/30 06:14:28;;;;;;;;;;;18.70;99.90;;;;;;4593667;19;20608;-23
2022/08/30 06:16:07;;;;;;;;;;;18.70;99.90;;;;;;4592533;19;20394;-24
2022/08/30 06:17:39;;;;;;;;;;;18.70;99.90;;;;;;4591999;19;19915;-21
2022/08/30 06:19:11;;;;;;;;;;;18.70;99.90;;;;;;4593196;19;19914;-22
2022/08/30 06:20:46;;;;;;;;;;;18.70;99.90;;;;;;4591986;19;20301;-21
2022/08/30 06:22:17;;;;;;;;;;;18.70;99.90;;;;;;4592390;19;19926;-23
2022/08/30 06:23:49;;;;;;;;;;;18.70;99.90;;;;;;4592196;19;19925;-22
2022/08/30 06:25:21;;;;;;;;;;;18.70;99.90;;;;;;4590439;19;20254;-23
2022/08/30 06:26:52;;;;;;;;;;;18.70;99.90;;;;;;4590492;19;19945;-23
2022/08/30 06:28:25;;;;;;;;;;;18.70;99.90;;;;;;4592766;19;19926;-21
2022/08/30 06:29:59;;;;;;;;;;;18.70;99.90;;;;;;4593363;19;20330;-22
2022/08/30 06:31:30;;;;;;;;;;;18.70;99.90;;;;;;4593563;19;19933;-23
2022/08/30 06:33:01;;;;;;;;;;;18.70;99.90;;;;;;4590487;19;20030;-22
2022/08/30 06:34:32;;;;;;;;;;;18.80;99.90;;;;;;4591903;19;19918;-22
2022/08/30 06:36:04;;;;;;;;;;;18.80;99.90;;;;;;4593124;19;20365;-25
2022/08/30 06:37:35;;;;;;;;;;;18.80;99.90;;;;;;4591964;19;19921;-23
2022/08/30 06:39:06;;;;;;;;;;;18.80;99.90;;;;;;4592156;19;20305;-25
2022/08/30 06:40:37;;;;;;;;;;;18.80;99.90;;;;;;4590137;19;20283;-22
2022/08/30 06:42:09;;;;;;;;;;;18.80;99.90;;;;;;4592371;19;19986;-23
2022/08/30 06:43:40;;;;;;;;;;;18.80;99.90;;;;;;4592999;19;19915;-23
2022/08/30 06:45:11;;;;;;;;;;;18.80;99.90;;;;;;4591759;19;20333;-23
2022/08/30 06:46:43;;;;;;;;;;;18.80;99.90;;;;;;4591833;19;19925;-23
2022/08/30 06:48:14;;;;;;;;;;;18.90;99.90;;;;;;4592099;19;20352;-25
2022/08/30 06:49:45;;;;;;;;;;;18.80;99.90;;;;;;4592381;19;19919;-23
2022/08/30 06:51:19;;;;;;;;;;;18.80;99.90;;;;;;4592757;19;19911;-23
2022/08/30 06:52:50;;;;;;;;;;;18.90;99.90;;;;;;4592799;19;19919;-24
2022/08/30 06:54:21;;;;;;;;;;;18.90;99.90;;;;;;4593182;19;19922;-23
2022/08/30 06:55:56;;;;;;;;;;;18.90;99.90;;;;;;4591725;19;19926;-23
2022/08/30 06:57:27;;;;;;;;;;;18.90;99.90;;;;;;4592203;19;19940;-23
2022/08/30 06:58:58;;;;;;;;;;;18.90;99.90;;;;;;4592771;19;19998;-24
2022/08/30 07:00:29;;;;;;;;;;;18.90;99.90;;;;;;4592577;19;19919;-24
2022/08/30 07:02:01;;;;;;;;;;;19.00;99.90;;;;;;4592573;19;19929;-22
2022/08/30 07:03:33;;;;;;;;;;;19.00;99.90;;;;;;4592747;19;20309;-23
2022/08/30 07:05:05;;;;;;;;;;;18.90;99.90;;;;;;4592426;19;19918;-23
2022/08/30 07:06:36;;;;;;;;;;;19.00;99.90;;;;;;4592838;19;19917;-23
2022/08/30 07:08:08;;;;;;;;;;;19.00;99.90;;;;;;4592544;19;20359;-22
2022/08/30 07:09:42;;;;;;;;;;;19.00;99.90;;;;;;4591512;19;19974;-23
2022/08/30 07:11:35;;;;;;;;;;;19.00;99.90;;;;;;4590732;19;20325;-24
2022/08/30 07:13:09;;;;;;;;;;;19.00;99.90;;;;;;4591396;19;19918;-24
2022/08/30 07:14:41;;;;;;;;;;;19.00;99.90;;;;;;4591800;19;20333;-23
2022/08/30 07:16:27;;;;;;;;;;;19.00;99.90;;;;;;4592237;19;19918;-23
2022/08/30 07:19:58;;;;;;;;;;;19.00;99.90;;;;;;4591000;19;19937;-23
2022/08/30 07:21:33;;;;;;;;;;;19.00;99.90;;;;;;4591012;19;20251;-22
2022/08/30 07:23:04;;;;;;;;;;;19.00;99.90;;;;;;4589686;19;19925;-24
2022/08/30 07:24:36;;;;;;;;;;;19.00;99.90;;;;;;4590655;19;19910;-23
2022/08/30 07:26:34;;;;;;;;;;;19.00;99.90;;;;;;4591153;19;19926;-24
2022/08/30 07:28:09;;;;;;;;;;;19.00;99.90;;;;;;4591772;19;20332;-23
2022/08/30 07:30:06;;;;;;;;;;;19.00;99.90;;;;;;4591785;19;19919;-24
2022/08/30 07:31:44;;;;;;;;;;;19.10;99.90;;;;;;4592132;19;19922;-23
2022/08/30 07:33:15;;;;;;;;;;;19.00;99.90;;;;;;4591680;19;19955;-24
2022/08/30 07:34:46;;;;;;;;;;;19.00;99.90;;;;;;4590834;19;19937;-23
2022/08/30 07:36:21;;;;;;;;;;;19.10;99.90;;;;;;4590372;19;19911;-20
2022/08/30 07:37:56;;;;;;;;;;;19.10;99.90;;;;;;4591642;19;19919;-23
2022/08/30 07:39:27;;;;;;;;;;;19.00;99.90;;;;;;4590442;19;20004;-22
2022/08/30 07:41:00;;;;;;;;;;;19.00;99.90;;;;;;4590654;19;19918;-23
2022/08/30 07:42:31;;;;;;;;;;;19.10;99.90;;;;;;4590441;19;19926;-23
2022/08/30 07:44:06;;;;;;;;;;;19.10;99.90;;;;;;4590257;19;19922;-23
2022/08/30 07:45:38;;;;;;;;;;;19.10;99.90;;;;;;4590159;19;20337;-23
2022/08/30 07:47:09;;;;;;;;;;;19.10;99.90;;;;;;4591532;19;19926;-25
2022/08/30 07:48:40;;;;;;;;;;;19.10;99.90;;;;;;4591663;19;19918;-23
2022/08/30 07:50:11;;;;;;;;;;;19.10;99.90;;;;;;4590161;19;19918;-23
2022/08/30 07:51:43;;;;;;;;;;;19.20;99.90;;;;;;4590882;19;19940;-23
2022/08/30 07:53:14;;;;;;;;;;;19.20;99.90;;;;;;4590197;19;19918;-23
2022/08/30 07:54:45;;;;;;;;;;;19.20;99.90;;;;;;4591436;19;19910;-24
2022/08/30 07:56:16;;;;;;;;;;;19.20;99.90;;;;;;4589990;19;19918;-24
2022/08/30 07:57:48;;;;;;;;;;;19.20;99.90;;;;;;4590083;19;19915;-25
2022/08/30 07:59:19;;;;;;;;;;;19.20;99.90;;;;;;4591057;19;19914;-23
2022/08/30 08:00:50;;;;;;;;;;;19.20;99.90;;;;;;4589811;19;19923;-23
2022/08/30 08:02:20;;;;;;;;;;;19.20;99.90;;;;;;4591495;19;20251;-23
2022/08/30 08:03:52;;;;;;;;;;;19.20;99.90;;;;;;4591422;19;20332;-24
2022/08/30 08:05:23;;;;;;;;;;;19.20;99.90;;;;;;4590266;19;19947;-23
2022/08/30 08:06:55;;;;;;;;;;;19.20;99.90;;;;;;4590675;19;20329;-25
2022/08/30 08:08:26;;;;;;;;;;;19.20;99.90;;;;;;4591127;19;19951;-23
2022/08/30 08:09:59;;;;;;;;;;;19.30;99.90;;;;;;4590536;19;19982;-23
2022/08/30 08:11:30;;;;;;;;;;;19.30;99.90;;;;;;4590466;19;20646;-25
2022/08/30 08:13:01;;;;;;;;;;;19.30;99.90;;;;;;4589895;19;19995;-25
2022/08/30 08:14:32;;;;;;;;;;;19.30;99.90;;;;;;4590683;19;19927;-23
2022/08/30 08:16:03;;;;;;;;;;;19.30;99.90;;;;;;4590901;19;19931;-25
2022/08/30 08:29:36;;;;;;;;;;;19.30;99.90;;;;;;4586792;19;20338;-23
2022/08/30 08:42:21;;;;;;;;;;;19.40;99.90;;;;;;4587935;19;20343;-23
2022/08/30 08:54:55;;;;;;;;;;;19.40;99.90;;;;;;4587717;19;19923;-23
2022/08/30 08:57:04;;;;;;;;;;;19.40;99.90;;;;;;4586611;19;19914;-23
2022/08/30 09:03:23;;;;;;;;;;;19.40;99.90;;;;;;4587860;19;20438;-24
2022/08/30 09:11:49;;;;;;;;;;;19.50;99.90;;;;;;4585334;19;19922;-23
2022/08/30 09:17:10;;;;;;;;;;;19.50;99.90;;;;;;4587256;19;19974;-25
2022/08/30 09:21:08;;;;;;;;;;;19.60;99.90;;;;;;4588004;19;20366;-23
2022/08/30 09:25:02;;;;;;;;;;;19.60;99.90;;;;;;4586060;19;19917;-23
2022/08/30 09:40:57;;;;;;;;;;;19.80;99.90;;;;;;4585624;19;19915;-24
2022/08/30 09:45:29;;;;;;;;;;;19.80;99.90;;;;;;4586589;19;19911;-24
2022/08/30 09:49:42;;;;;;;;;;;19.80;99.90;;;;;;4585015;19;19923;-26
2022/08/30 09:53:44;;;;;;;;;;;19.90;99.90;;;;;;4585813;19;19934;-24
2022/08/30 10:50:34;;;;;;;;;;;20.00;99.90;;;;;;4589688;19;19915;-25
2022/08/30 10:52:34;;;;;;;;;;;20.10;99.90;;;;;;4589776;19;19939;-24
2022/08/30 10:54:14;;;;;;;;;;;20.00;99.90;;;;;;4589165;19;20026;-25
2022/08/30 11:14:54;;;;;;;;;;;20.30;99.90;;;;;;4589450;19;19911;-24
2022/08/30 11:24:00;;;;;;;;;;;20.40;99.90;;;;;;4592355;19;19911;-24
2022/08/30 11:25:50;;;;;;;;;;;20.40;99.90;;;;;;4589975;19;19927;-24
2022/08/30 11:27:39;;;;;;;;;;;20.40;99.90;;;;;;4589935;19;19910;-23
2022/08/30 11:29:31;;;;;;;;;;;20.40;99.90;;;;;;4590679;19;20371;-26
2022/08/30 11:31:21;;;;;;;;;;;20.40;99.90;;;;;;4590555;19;20300;-24
2022/08/30 11:33:10;;;;;;;;;;;20.40;99.90;;;;;;4589386;19;19919;-24
2022/08/30 11:34:44;;;;;;;;;;;20.40;99.90;;;;;;4589827;19;19974;-23
2022/08/30 11:36:27;;;;;;;;;;;20.40;99.90;;;;;;4589763;19;19941;-22
2022/08/30 11:37:58;;;;;;;;;;;20.30;99.90;;;;;;4589549;19;20308;-25